createdAt,value
2019-05-13T00:02:13.356Z,19.32
2019-05-13T00:04:44.623Z,22.55
2019-05-13T00:07:15.572Z,22.32
2019-05-13T00:09:46.529Z,22.17
2019-05-13T00:12:17.712Z,21.73
2019-05-13T00:14:48.601Z,20.45
2019-05-13T00:17:19.550Z,20.62
2019-05-13T00:19:50.519Z,18.85
2019-05-13T00:22:23.444Z,19.40
2019-05-13T00:24:54.282Z,20.23
2019-05-13T00:27:25.348Z,20.27
2019-05-13T00:29:56.203Z,18.27
2019-05-13T00:32:27.094Z,19.20
2019-05-13T00:34:58.581Z,18.12
2019-05-13T00:37:29.577Z,17.87
2019-05-13T00:40:00.282Z,18.05
2019-05-13T00:42:33.342Z,19.40
2019-05-13T00:45:04.127Z,18.33
2019-05-13T00:47:35.110Z,17.20
2019-05-13T00:50:07.533Z,18.37
2019-05-13T00:52:38.464Z,17.73
2019-05-13T00:55:10.082Z,24.35
2019-05-13T00:57:43.452Z,21.57
2019-05-13T01:00:14.305Z,19.05
2019-05-13T01:02:45.435Z,20.43
2019-05-13T01:05:16.450Z,16.45
2019-05-13T01:07:47.330Z,16.77
2019-05-13T01:10:18.516Z,15.75
2019-05-13T01:12:49.672Z,20.65
2019-05-13T01:15:20.764Z,17.27
2019-05-13T01:17:53.451Z,15.93
2019-05-13T01:20:23.968Z,16.25
2019-05-13T01:22:55.020Z,16.17
2019-05-13T01:25:26.286Z,16.35
2019-05-13T01:27:57.197Z,17.10
2019-05-13T01:30:28.367Z,17.37
2019-05-13T01:32:59.307Z,17.50
2019-05-13T01:35:30.160Z,17.20
2019-05-13T01:38:00.891Z,16.12
2019-05-13T01:40:34.430Z,16.82
2019-05-13T01:43:04.348Z,15.15
2019-05-13T01:45:35.229Z,14.18
2019-05-13T01:48:07.887Z,15.80
2019-05-13T01:50:38.715Z,14.23
2019-05-13T01:53:09.475Z,15.80
2019-05-13T01:55:40.643Z,15.60
2019-05-13T01:58:11.510Z,13.68
2019-05-13T02:00:44.259Z,13.60
2019-05-13T02:03:14.982Z,14.70
2019-05-13T02:05:45.715Z,13.50
2019-05-13T02:08:16.793Z,14.18
2019-05-13T02:10:49.068Z,13.58
2019-05-13T02:13:20.017Z,14.60
2019-05-13T02:15:50.825Z,16.48
2019-05-13T02:18:24.113Z,14.35
2019-05-13T02:20:55.221Z,12.93
2019-05-13T02:23:27.706Z,13.23
2019-05-13T02:25:58.503Z,15.78
2019-05-13T02:28:29.356Z,15.72
2019-05-13T02:31:00.459Z,14.33
2019-05-13T02:33:33.843Z,15.20
2019-05-13T02:36:03.602Z,15.10
2019-05-13T02:38:35.697Z,16.23
2019-05-13T02:41:06.974Z,13.13
2019-05-13T02:43:41.235Z,12.07
2019-05-13T02:48:42.493Z,11.35
2019-05-13T02:51:13.795Z,12.88
2019-05-13T02:53:45.115Z,12.65
2019-05-13T02:56:16.166Z,12.15
2019-05-13T02:58:47.017Z,12.73
2019-05-13T03:01:18.142Z,11.57
2019-05-13T03:03:52.533Z,11.60
2019-05-13T03:06:22.257Z,11.90
2019-05-13T03:08:54.368Z,10.28
2019-05-13T03:11:25.767Z,11.47
2019-05-13T03:13:56.975Z,9.75
2019-05-13T03:16:32.229Z,9.68
2019-05-13T03:19:02.907Z,10.50
2019-05-13T03:21:33.977Z,10.78
2019-05-13T03:24:04.764Z,11.08
2019-05-13T03:26:35.918Z,11.45
2019-05-13T03:29:06.975Z,10.45
2019-05-13T03:31:37.770Z,11.33
2019-05-13T03:34:14.614Z,9.98
2019-05-13T03:36:45.997Z,9.70
2019-05-13T03:39:16.441Z,9.25
2019-05-13T03:41:47.642Z,10.82
2019-05-13T03:44:23.220Z,10.08
2019-05-13T03:46:55.026Z,10.23
2019-05-13T03:49:28.147Z,10.05
2019-05-13T03:54:32.428Z,9.03
2019-05-13T03:57:03.527Z,9.83
2019-05-13T03:59:34.208Z,8.48
2019-05-13T04:02:05.250Z,9.20
2019-05-13T04:04:36.228Z,8.38
2019-05-13T04:07:07.657Z,8.73
2019-05-13T04:09:38.596Z,9.33
2019-05-13T04:12:13.145Z,9.68
2019-05-13T04:14:42.584Z,9.83
2019-05-13T04:17:13.615Z,9.13
2019-05-13T04:19:44.720Z,8.75
2019-05-13T04:22:15.897Z,7.87
2019-05-13T04:24:46.668Z,9.00
2019-05-13T04:27:17.968Z,9.10
2019-05-13T04:29:52.498Z,9.43
2019-05-13T04:34:53.103Z,8.38
2019-05-13T04:37:24.149Z,8.00
2019-05-13T04:39:56.316Z,8.13
2019-05-13T04:42:27.255Z,9.10
2019-05-13T04:45:02.654Z,7.83
2019-05-13T04:47:33.197Z,7.75
2019-05-13T04:50:04.145Z,7.62
2019-05-13T04:52:35.079Z,8.25
2019-05-13T04:55:07.698Z,8.10
2019-05-13T04:57:38.551Z,9.73
2019-05-13T05:00:12.904Z,8.55
2019-05-13T05:02:49.655Z,8.45
2019-05-13T05:05:22.227Z,8.50
2019-05-13T05:07:54.139Z,8.50
2019-05-13T05:10:34.704Z,9.03
2019-05-13T05:13:02.401Z,7.90
2019-05-13T05:15:35.753Z,7.95
2019-05-13T05:18:11.537Z,8.85
2019-05-13T05:20:46.169Z,8.98
2019-05-13T05:23:18.383Z,8.68
2019-05-13T05:25:52.142Z,8.80
2019-05-13T05:28:26.335Z,8.40
2019-05-13T05:31:02.173Z,9.10
2019-05-13T05:33:34.139Z,8.08
2019-05-13T05:36:07.362Z,8.85
2019-05-13T05:38:43.048Z,9.83
2019-05-13T05:41:15.747Z,8.30
2019-05-13T05:43:47.448Z,9.03
2019-05-13T05:46:22.041Z,8.10
2019-05-13T05:48:54.726Z,8.48
2019-05-13T05:51:27.514Z,8.83
2019-05-13T05:54:02.366Z,10.28
2019-05-13T05:56:35.534Z,12.58
2019-05-13T05:59:06.745Z,12.18
2019-05-13T06:01:38.022Z,8.45
2019-05-13T06:04:08.865Z,9.03
2019-05-13T06:06:41.578Z,9.63
2019-05-13T06:09:12.736Z,9.73
2019-05-13T06:11:43.911Z,11.43
2019-05-13T06:14:15.395Z,10.25
2019-05-13T06:16:46.342Z,10.70
2019-05-13T06:19:17.983Z,9.73
2019-05-13T06:21:51.327Z,11.43
2019-05-13T06:24:26.174Z,10.08
2019-05-13T06:26:54.293Z,9.80
2019-05-13T06:29:25.535Z,10.08
2019-05-13T06:31:56.690Z,9.83
2019-05-13T06:34:27.815Z,10.63
2019-05-13T06:36:58.769Z,9.35
2019-05-13T06:39:31.657Z,9.43
2019-05-13T06:42:02.963Z,9.90
2019-05-13T06:44:34.311Z,11.18
2019-05-13T06:47:05.136Z,10.88
2019-05-13T06:49:36.013Z,10.40
2019-05-13T06:52:07.024Z,10.98
2019-05-13T06:54:37.750Z,10.00
2019-05-13T06:57:13.059Z,10.82
2019-05-13T06:59:41.965Z,11.30
2019-05-13T07:02:12.923Z,9.70
2019-05-13T07:04:43.791Z,9.55
2019-05-13T07:07:17.352Z,10.43
2019-05-13T07:09:47.039Z,11.13
2019-05-13T07:12:18.037Z,10.18
2019-05-13T07:14:51.153Z,10.50
2019-05-13T07:17:22.349Z,14.23
2019-05-13T07:19:53.633Z,14.15
2019-05-13T07:22:24.598Z,14.43
2019-05-13T07:24:55.566Z,17.42
2019-05-13T07:27:26.555Z,13.38
2019-05-13T07:29:57.533Z,14.28
2019-05-13T07:32:31.311Z,11.80
2019-05-13T07:35:03.889Z,10.60
2019-05-13T07:37:34.245Z,12.83
2019-05-13T07:40:11.631Z,13.50
2019-05-13T07:42:42.049Z,10.03
2019-05-13T07:45:13.268Z,10.03
2019-05-13T07:47:44.384Z,9.30
2019-05-13T07:50:15.513Z,7.55
2019-05-13T07:52:46.827Z,7.75
2019-05-13T07:55:17.609Z,7.62
2019-05-13T07:57:48.450Z,7.45
2019-05-13T08:00:21.771Z,7.05
2019-05-13T08:02:52.993Z,6.22
2019-05-13T08:05:24.254Z,6.15
2019-05-13T08:07:55.254Z,6.10
2019-05-13T08:10:26.108Z,7.12
2019-05-13T08:12:57.156Z,6.45
2019-05-13T08:15:28.174Z,6.75
2019-05-13T08:18:01.796Z,5.83
2019-05-13T08:20:32.745Z,8.40
2019-05-13T08:23:03.998Z,5.90
2019-05-13T08:25:34.750Z,6.05
2019-05-13T08:28:05.999Z,7.10
2019-05-13T08:30:37.092Z,6.45
2019-05-13T08:33:08.053Z,5.47
2019-05-13T08:35:39.023Z,5.97
2019-05-13T08:38:12.101Z,6.03
2019-05-13T08:40:43.085Z,3.52
2019-05-13T08:43:15.064Z,3.92
2019-05-13T08:45:46.434Z,4.08
2019-05-13T08:48:17.180Z,3.35
2019-05-13T08:50:47.782Z,4.00
2019-05-13T08:53:21.121Z,5.45
2019-05-13T08:55:51.714Z,5.13
2019-05-13T08:58:22.618Z,5.83
2019-05-13T09:00:58.806Z,6.22
2019-05-13T09:03:28.029Z,4.83
2019-05-13T09:05:59.322Z,5.75
2019-05-13T09:08:31.848Z,7.85
2019-05-13T09:11:02.778Z,6.47
2019-05-13T09:13:34.107Z,7.40
2019-05-13T09:16:05.183Z,8.70
2019-05-13T09:18:36.049Z,7.03
2019-05-13T09:21:06.940Z,6.62
2019-05-13T09:23:37.929Z,7.28
2019-05-13T09:26:11.646Z,7.55
2019-05-13T09:28:52.094Z,9.30
2019-05-13T09:31:22.593Z,8.63
2019-05-13T09:33:53.645Z,7.92
2019-05-13T09:36:24.476Z,8.15
2019-05-13T09:38:55.224Z,6.90
2019-05-13T09:41:26.382Z,7.00
2019-05-13T09:43:57.157Z,6.67
2019-05-13T09:46:28.137Z,8.45
2019-05-13T09:49:12.795Z,6.33
2019-05-13T09:51:32.325Z,5.58
2019-05-13T09:54:03.595Z,6.47
2019-05-13T09:56:34.776Z,7.62
2019-05-13T09:59:05.646Z,8.70
2019-05-13T10:01:36.341Z,9.33
2019-05-13T10:04:11.634Z,9.15
2019-05-13T10:06:42.091Z,9.65
2019-05-13T10:09:12.775Z,8.40
2019-05-13T10:11:43.786Z,9.20
2019-05-13T10:14:17.252Z,9.10
2019-05-13T10:16:48.320Z,9.55
2019-05-13T10:19:21.513Z,9.03
2019-05-13T10:21:52.481Z,8.68
2019-05-13T10:24:23.461Z,9.28
2019-05-13T10:26:54.528Z,9.68
2019-05-13T10:29:25.792Z,10.50
2019-05-13T10:31:56.759Z,10.15
2019-05-13T10:34:27.979Z,8.73
2019-05-13T10:37:01.492Z,7.78
2019-05-13T10:39:31.511Z,8.65
2019-05-13T10:42:03.634Z,8.63
2019-05-13T10:44:34.864Z,9.70
2019-05-13T10:47:06.245Z,10.13
2019-05-13T10:49:37.615Z,9.75
2019-05-13T10:52:08.602Z,11.60
2019-05-13T10:54:41.495Z,12.40
2019-05-13T10:57:13.661Z,12.47
2019-05-13T10:59:44.583Z,13.72
2019-05-13T11:02:15.768Z,13.60
2019-05-13T11:04:47.176Z,15.18
2019-05-13T11:07:17.935Z,14.40
2019-05-13T11:09:52.472Z,14.90
2019-05-13T11:12:22.193Z,15.43
2019-05-13T11:14:55.341Z,15.97
2019-05-13T11:17:31.075Z,15.40
2019-05-13T11:19:59.835Z,15.03
2019-05-13T11:22:32.733Z,15.40
2019-05-13T11:25:03.261Z,15.27
2019-05-13T11:27:34.463Z,15.23
2019-05-13T11:30:08.193Z,15.35
2019-05-13T11:32:42.402Z,14.03
2019-05-13T11:35:12.655Z,14.50
2019-05-13T11:37:44.177Z,15.80
2019-05-13T11:40:15.646Z,13.90
2019-05-13T11:42:46.511Z,14.78
2019-05-13T11:45:17.953Z,17.35
2019-05-13T11:47:49.009Z,16.37
2019-05-13T11:50:22.354Z,17.87
2019-05-13T11:52:52.884Z,17.87
2019-05-13T11:55:24.713Z,15.90
2019-05-13T11:57:55.600Z,18.00
2019-05-13T12:00:31.264Z,18.32
2019-05-13T12:03:04.208Z,16.32
2019-05-13T12:05:33.500Z,19.70
2019-05-13T12:08:04.661Z,16.50
2019-05-13T12:10:35.814Z,15.93
2019-05-13T12:13:06.858Z,15.35
2019-05-13T12:15:46.037Z,14.38
2019-05-13T12:18:12.630Z,15.63
2019-05-13T12:20:42.810Z,15.00
